createdAt,value
2023-02-13T00:05:02.733Z,4.05
2023-02-13T00:10:33.997Z,3.72
2023-02-13T00:16:06.084Z,4.20
2023-02-13T00:21:37.218Z,3.67
2023-02-13T00:27:08.624Z,4.07
2023-02-13T00:32:39.753Z,4.82
2023-02-13T00:38:10.842Z,4.38
2023-02-13T00:43:42.019Z,3.95
2023-02-13T00:49:13.226Z,3.90
2023-02-13T00:54:44.337Z,4.43
2023-02-13T01:00:17.650Z,4.65
2023-02-13T01:05:49.568Z,4.40
2023-02-13T01:11:20.886Z,3.95
2023-02-13T01:16:51.823Z,3.97
2023-02-13T01:22:22.957Z,7.88
2023-02-13T01:27:54.096Z,6.07
2023-02-13T01:33:26.371Z,6.05
2023-02-13T01:38:58.713Z,5.78
2023-02-13T01:44:50.262Z,5.80
2023-02-13T01:50:41.559Z,6.00
2023-02-13T01:56:21.116Z,5.82
2023-02-13T02:01:52.844Z,5.88
2023-02-13T02:07:26.847Z,5.38
2023-02-13T02:13:11.949Z,4.40
2023-02-13T02:18:44.080Z,5.18
2023-02-13T02:24:24.653Z,5.07
2023-02-13T02:30:17.457Z,4.97
2023-02-13T02:35:49.107Z,4.90
2023-02-13T02:41:43.122Z,5.10
2023-02-13T02:47:56.757Z,5.38
2023-02-13T02:53:44.585Z,4.53
2023-02-13T02:59:35.697Z,4.60
2023-02-13T03:05:37.005Z,4.13
2023-02-13T03:11:46.848Z,3.97
2023-02-13T03:17:37.338Z,4.20
2023-02-13T03:23:16.035Z,3.88
2023-02-13T03:29:19.095Z,4.63
2023-02-13T03:35:16.386Z,3.95
2023-02-13T03:41:10.214Z,3.75
2023-02-13T03:46:44.630Z,3.80
2023-02-13T03:52:51.326Z,4.07
2023-02-13T03:58:50.249Z,3.25
2023-02-13T04:04:36.448Z,3.83
2023-02-13T04:10:10.586Z,3.42
2023-02-13T04:15:51.480Z,3.67
2023-02-13T04:21:22.487Z,3.28
2023-02-13T04:26:55.071Z,3.35
2023-02-13T04:32:26.102Z,3.53
2023-02-13T04:37:57.231Z,3.75
2023-02-13T04:43:28.416Z,3.42
2023-02-13T04:48:59.532Z,2.67
2023-02-13T04:54:30.889Z,3.45
2023-02-13T05:00:01.936Z,2.88
2023-02-13T05:05:33.488Z,3.33
2023-02-13T05:11:05.098Z,3.22
2023-02-13T05:16:36.415Z,3.17
2023-02-13T05:22:27.810Z,3.03
2023-02-13T05:27:59.175Z,3.10
2023-02-13T05:33:30.761Z,3.65
2023-02-13T05:39:01.880Z,3.13
2023-02-13T05:44:33.729Z,2.80
2023-02-13T05:50:05.411Z,3.65
2023-02-13T05:55:36.813Z,3.47
2023-02-13T06:01:08.130Z,3.38
2023-02-13T06:06:39.359Z,3.45
2023-02-13T06:12:10.365Z,2.78
2023-02-13T06:17:41.500Z,3.33
2023-02-13T06:23:13.236Z,3.30
2023-02-13T06:28:45.054Z,3.35
2023-02-13T06:34:16.468Z,3.47
2023-02-13T06:39:47.709Z,3.25
2023-02-13T06:45:18.886Z,3.25
2023-02-13T06:50:52.348Z,2.92
2023-02-13T06:56:23.340Z,3.10
2023-02-13T07:01:54.498Z,2.88
2023-02-13T07:07:26.282Z,3.10
2023-02-13T07:13:05.795Z,3.25
2023-02-13T07:18:38.691Z,3.50
2023-02-13T07:24:10.164Z,3.33
2023-02-13T07:29:41.137Z,3.33
2023-02-13T07:35:12.467Z,3.70
2023-02-13T07:40:43.650Z,3.50
2023-02-13T07:46:14.812Z,2.88
2023-02-13T07:51:46.312Z,2.80
2023-02-13T07:57:17.702Z,3.83
2023-02-13T08:02:49.012Z,3.05
2023-02-13T08:08:20.059Z,3.05
2023-02-13T08:13:51.454Z,3.20
2023-02-13T08:19:22.422Z,2.70
2023-02-13T08:24:54.453Z,3.30
2023-02-13T08:30:25.379Z,3.00
2023-02-13T08:35:56.724Z,3.33
2023-02-13T08:41:28.705Z,3.53
2023-02-13T08:47:04.184Z,3.45
2023-02-13T08:52:35.863Z,3.22
2023-02-13T08:58:07.247Z,3.55
2023-02-13T09:03:38.484Z,3.25
2023-02-13T09:09:09.992Z,3.35
2023-02-13T09:14:41.200Z,3.38
2023-02-13T09:20:14.199Z,3.40
2023-02-13T09:25:45.236Z,3.13
2023-02-13T09:31:19.590Z,3.88
2023-02-13T09:36:54.456Z,3.80
2023-02-13T09:42:29.165Z,3.47
2023-02-13T09:48:01.050Z,3.20
2023-02-13T09:53:33.819Z,3.55
2023-02-13T09:59:37.884Z,3.40
2023-02-13T10:05:21.024Z,3.35
2023-02-13T10:10:57.956Z,3.53
2023-02-13T10:16:38.792Z,3.58
2023-02-13T10:22:36.370Z,3.25
2023-02-13T10:28:13.155Z,3.03
2023-02-13T10:33:48.740Z,2.80
2023-02-13T10:39:28.968Z,2.78
2023-02-13T10:45:37.147Z,3.45
2023-02-13T10:51:16.564Z,3.20
2023-02-13T10:57:07.057Z,3.45
2023-02-13T11:02:38.932Z,2.95
2023-02-13T11:08:39.608Z,2.75
2023-02-13T11:14:17.991Z,3.33
2023-02-13T11:19:54.370Z,3.08
2023-02-13T11:25:27.315Z,2.97
2023-02-13T11:31:20.920Z,3.17
2023-02-13T11:36:53.703Z,2.63
2023-02-13T11:42:31.102Z,2.97
2023-02-13T11:48:09.963Z,3.25
2023-02-13T11:53:41.606Z,3.20
2023-02-13T11:59:14.117Z,2.83
2023-02-13T12:04:46.460Z,2.83
2023-02-13T12:10:30.153Z,2.85
2023-02-13T12:16:13.461Z,2.88
2023-02-13T12:21:50.533Z,2.70
2023-02-13T12:27:51.403Z,3.10
2023-02-13T12:33:37.727Z,2.90
2023-02-13T12:39:18.241Z,3.17
2023-02-13T12:45:34.068Z,2.50
2023-02-13T12:51:35.207Z,3.83
2023-02-13T12:57:29.411Z,3.35
2023-02-13T13:03:31.224Z,3.17
2023-02-13T13:09:20.385Z,3.05
2023-02-13T13:15:06.199Z,2.97
2023-02-13T13:20:46.189Z,2.92
2023-02-13T13:26:42.513Z,3.20
2023-02-13T13:32:22.068Z,3.15
2023-02-13T13:38:19.712Z,2.95
2023-02-13T13:43:58.156Z,2.85
2023-02-13T13:49:45.070Z,3.10
2023-02-13T13:55:47.122Z,3.25
2023-02-13T14:01:31.654Z,3.40
2023-02-13T14:07:03.092Z,3.35
2023-02-13T14:12:34.098Z,3.38
2023-02-13T14:18:08.182Z,3.00
2023-02-13T14:23:53.430Z,4.72
2023-02-13T14:29:33.411Z,3.22
2023-02-13T14:35:21.318Z,3.30
2023-02-13T14:40:54.455Z,3.45
2023-02-13T14:46:35.906Z,3.05
2023-02-13T14:52:26.631Z,3.60
2023-02-13T14:58:23.488Z,3.42
2023-02-13T15:04:15.536Z,3.50
2023-02-13T15:10:00.840Z,3.55
2023-02-13T15:15:34.939Z,3.22
2023-02-13T15:21:06.082Z,3.05
2023-02-13T15:26:37.578Z,3.55
2023-02-13T15:32:20.744Z,3.10
2023-02-13T15:37:53.322Z,3.28
2023-02-13T15:43:38.877Z,3.40
2023-02-13T15:49:16.135Z,3.45
2023-02-13T15:54:50.244Z,3.72
2023-02-13T16:00:27.524Z,3.60
2023-02-13T16:05:58.888Z,3.45
2023-02-13T16:11:37.316Z,3.67
2023-02-13T16:17:17.735Z,3.40
2023-02-13T16:23:10.887Z,4.22
2023-02-13T16:28:46.724Z,3.80
2023-02-13T16:34:29.417Z,4.00
2023-02-13T16:40:45.352Z,4.45
2023-02-13T16:46:19.463Z,4.15
2023-02-13T16:51:59.819Z,4.43
2023-02-13T16:57:35.101Z,4.38
2023-02-13T17:03:09.174Z,4.60
2023-02-13T17:08:40.094Z,5.28
2023-02-13T17:14:11.257Z,5.15
2023-02-13T17:19:42.432Z,4.50
2023-02-13T17:25:25.050Z,5.35
2023-02-13T17:30:58.270Z,5.80
2023-02-13T17:36:29.892Z,5.88
2023-02-13T17:42:01.434Z,5.90
2023-02-13T17:47:32.955Z,6.43
2023-02-13T17:53:23.908Z,6.07
2023-02-13T17:58:55.294Z,6.47
2023-02-13T18:04:26.672Z,6.65
2023-02-13T18:09:58.498Z,6.57
2023-02-13T18:15:42.260Z,6.55
2023-02-13T18:21:14.013Z,6.30
2023-02-13T18:26:45.435Z,6.22
2023-02-13T18:32:16.554Z,6.75
2023-02-13T18:37:48.368Z,7.05
2023-02-13T18:43:19.381Z,6.68
2023-02-13T18:48:50.274Z,7.88
2023-02-13T18:54:21.752Z,8.07
2023-02-13T18:59:52.762Z,7.53
2023-02-13T19:05:23.988Z,7.95
2023-02-13T19:11:00.149Z,8.13
2023-02-13T19:16:34.026Z,7.65
2023-02-13T19:22:05.302Z,8.30
2023-02-13T19:27:38.384Z,8.35
2023-02-13T19:33:09.869Z,7.95
2023-02-13T19:38:43.675Z,8.13
2023-02-13T19:44:15.163Z,8.10
2023-02-13T19:49:48.193Z,7.65
2023-02-13T19:55:22.414Z,8.18
2023-02-13T20:00:53.828Z,7.63
2023-02-13T20:06:33.526Z,8.20
2023-02-13T20:12:05.156Z,8.55
2023-02-13T20:17:38.107Z,7.90
2023-02-13T20:23:09.714Z,8.07
2023-02-13T20:28:42.421Z,8.20
2023-02-13T20:34:13.748Z,7.68
2023-02-13T20:39:45.198Z,7.88
2023-02-13T20:45:17.279Z,7.32
2023-02-13T20:50:58.661Z,8.07
2023-02-13T20:56:30.300Z,7.13
2023-02-13T21:02:01.272Z,8.05
2023-02-13T21:07:32.720Z,6.53
2023-02-13T21:13:04.392Z,7.88
2023-02-13T21:18:37.246Z,6.70
2023-02-13T21:24:11.427Z,7.50
2023-02-13T21:29:42.425Z,6.72
2023-02-13T21:35:13.316Z,7.10
2023-02-13T21:40:44.558Z,7.18
2023-02-13T21:46:19.646Z,7.65
2023-02-13T21:51:50.896Z,6.57
2023-02-13T21:57:22.025Z,7.80
2023-02-13T22:02:52.877Z,6.75
2023-02-13T22:08:24.296Z,6.53
2023-02-13T22:14:04.096Z,7.28
2023-02-13T22:19:35.254Z,6.82
2023-02-13T22:25:06.744Z,6.55
2023-02-13T22:30:38.172Z,6.60
2023-02-13T22:36:09.970Z,6.30
2023-02-13T22:41:44.615Z,6.78
2023-02-13T22:47:15.972Z,6.25
2023-02-13T22:52:47.848Z,6.13
2023-02-13T22:58:19.010Z,7.75
2023-02-13T23:03:50.285Z,5.90
2023-02-13T23:09:21.932Z,6.00
2023-02-13T23:14:54.245Z,6.40
2023-02-13T23:20:26.911Z,6.57
2023-02-13T23:25:57.923Z,6.30
2023-02-13T23:31:29.362Z,7.10
2023-02-13T23:37:00.733Z,6.20
2023-02-13T23:42:31.945Z,5.93
2023-02-13T23:48:02.973Z,5.82
2023-02-13T23:53:37.471Z,5.85
2023-02-13T23:59:08.742Z,6.47
